sensor_id;sensor_type;location;lat;lon;timestamp;pressure;altitude;pressure_sealevel;temperature;humidity
24858;BME280;12935;50.782;6.074;2023-04-28T00:00:26;99139.63;;;11.89;100.00
24858;BME280;12935;50.782;6.074;2023-04-28T00:02:51;99146.63;;;11.94;100.00
24858;BME280;12935;50.782;6.074;2023-04-28T00:05:18;99146.22;;;11.96;100.00
24858;BME280;12935;50.782;6.074;2023-04-28T00:07:43;99148.09;;;11.99;100.00
24858;BME280;12935;50.782;6.074;2023-04-28T00:10:08;99132.06;;;11.97;100.00
24858;BME280;12935;50.782;6.074;2023-04-28T00:12:34;99126.19;;;11.99;100.00
24858;BME280;12935;50.782;6.074;2023-04-28T00:14:59;99125.41;;;11.98;100.00
24858;BME280;12935;50.782;6.074;2023-04-28T00:17:25;99123.16;;;11.93;100.00
24858;BME280;12935;50.782;6.074;2023-04-28T00:19:50;99113.06;;;11.86;100.00
24858;BME280;12935;50.782;6.074;2023-04-28T00:22:15;99124.97;;;12.03;100.00
24858;BME280;12935;50.782;6.074;2023-04-28T00:24:40;99114.44;;;12.02;100.00
24858;BME280;12935;50.782;6.074;2023-04-28T00:27:06;99115.97;;;12.03;100.00
24858;BME280;12935;50.782;6.074;2023-04-28T00:29:32;99110.09;;;12.04;100.00
24858;BME280;12935;50.782;6.074;2023-04-28T00:31:57;99106.63;;;12.00;100.00
24858;BME280;12935;50.782;6.074;2023-04-28T00:34:22;99109.41;;;11.97;100.00
24858;BME280;12935;50.782;6.074;2023-04-28T00:36:47;99108.16;;;12.01;100.00
24858;BME280;12935;50.782;6.074;2023-04-28T00:39:14;99107.72;;;12.06;100.00
24858;BME280;12935;50.782;6.074;2023-04-28T00:41:40;99102.25;;;12.06;100.00
24858;BME280;12935;50.782;6.074;2023-04-28T00:44:05;99103.00;;;12.07;100.00
24858;BME280;12935;50.782;6.074;2023-04-28T00:46:32;99099.88;;;12.08;100.00
24858;BME280;12935;50.782;6.074;2023-04-28T00:48:57;99101.00;;;12.11;100.00
24858;BME280;12935;50.782;6.074;2023-04-28T00:51:23;99095.88;;;12.13;100.00
24858;BME280;12935;50.782;6.074;2023-04-28T00:53:49;99096.19;;;12.18;100.00
24858;BME280;12935;50.782;6.074;2023-04-28T00:56:15;99088.34;;;12.20;100.00
24858;BME280;12935;50.782;6.074;2023-04-28T00:58:41;99081.72;;;12.18;100.00
24858;BME280;12935;50.782;6.074;2023-04-28T01:01:08;99082.50;;;12.18;100.00
24858;BME280;12935;50.782;6.074;2023-04-28T01:03:38;99079.34;;;12.20;100.00
24858;BME280;12935;50.782;6.074;2023-04-28T01:06:05;99065.41;;;12.11;100.00
24858;BME280;12935;50.782;6.074;2023-04-28T01:08:31;99075.81;;;12.19;100.00
24858;BME280;12935;50.782;6.074;2023-04-28T01:10:57;99076.59;;;12.20;100.00
24858;BME280;12935;50.782;6.074;2023-04-28T01:13:23;99067.63;;;12.19;100.00
24858;BME280;12935;50.782;6.074;2023-04-28T01:15:49;99071.34;;;12.06;100.00
24858;BME280;12935;50.782;6.074;2023-04-28T01:18:15;99068.00;;;11.94;100.00
24858;BME280;12935;50.782;6.074;2023-04-28T01:20:40;99077.53;;;11.83;100.00
24858;BME280;12935;50.782;6.074;2023-04-28T01:23:12;99080.00;;;11.70;100.00
24858;BME280;12935;50.782;6.074;2023-04-28T01:25:38;99077.22;;;11.74;100.00
24858;BME280;12935;50.782;6.074;2023-04-28T01:28:03;99072.81;;;11.83;100.00
24858;BME280;12935;50.782;6.074;2023-04-28T01:30:29;99078.16;;;11.94;100.00
24858;BME280;12935;50.782;6.074;2023-04-28T01:32:54;99069.94;;;11.94;100.00
24858;BME280;12935;50.782;6.074;2023-04-28T01:35:19;99083.78;;;11.83;100.00
24858;BME280;12935;50.782;6.074;2023-04-28T01:37:44;99078.81;;;11.71;100.00
24858;BME280;12935;50.782;6.074;2023-04-28T01:40:10;99080.25;;;11.83;100.00
24858;BME280;12935;50.782;6.074;2023-04-28T01:42:36;99082.50;;;11.91;100.00
24858;BME280;12935;50.782;6.074;2023-04-28T01:45:01;99069.19;;;11.93;100.00
24858;BME280;12935;50.782;6.074;2023-04-28T01:47:27;99069.06;;;12.01;100.00
24858;BME280;12935;50.782;6.074;2023-04-28T01:49:52;99063.94;;;12.03;100.00
24858;BME280;12935;50.782;6.074;2023-04-28T01:52:18;99056.91;;;12.02;100.00
24858;BME280;12935;50.782;6.074;2023-04-28T01:54:45;99048.75;;;11.98;100.00
24858;BME280;12935;50.782;6.074;2023-04-28T01:57:10;99061.22;;;12.03;100.00
24858;BME280;12935;50.782;6.074;2023-04-28T01:59:35;99063.53;;;12.04;100.00
24858;BME280;12935;50.782;6.074;2023-04-28T02:02:00;99053.72;;;12.07;100.00
24858;BME280;12935;50.782;6.074;2023-04-28T02:04:26;99051.41;;;12.05;100.00
24858;BME280;12935;50.782;6.074;2023-04-28T02:06:51;99042.03;;;12.03;100.00
24858;BME280;12935;50.782;6.074;2023-04-28T02:09:16;99044.00;;;12.02;100.00
24858;BME280;12935;50.782;6.074;2023-04-28T02:11:42;99045.50;;;12.07;100.00
24858;BME280;12935;50.782;6.074;2023-04-28T02:14:07;99047.84;;;12.08;100.00
24858;BME280;12935;50.782;6.074;2023-04-28T02:16:32;99037.66;;;12.09;100.00
24858;BME280;12935;50.782;6.074;2023-04-28T02:18:58;99042.38;;;12.08;100.00
24858;BME280;12935;50.782;6.074;2023-04-28T02:21:23;99036.09;;;12.08;100.00
24858;BME280;12935;50.782;6.074;2023-04-28T02:23:48;99040.03;;;12.07;100.00
24858;BME280;12935;50.782;6.074;2023-04-28T02:26:14;99044.84;;;11.69;100.00
24858;BME280;12935;50.782;6.074;2023-04-28T02:28:41;99041.34;;;11.38;100.00
24858;BME280;12935;50.782;6.074;2023-04-28T02:31:10;99045.06;;;11.20;100.00
24858;BME280;12935;50.782;6.074;2023-04-28T02:33:36;99049.84;;;11.13;100.00
24858;BME280;12935;50.782;6.074;2023-04-28T02:36:02;99043.88;;;11.21;100.00
24858;BME280;12935;50.782;6.074;2023-04-28T02:38:28;99045.22;;;11.40;100.00
24858;BME280;12935;50.782;6.074;2023-04-28T02:41:03;99035.84;;;11.41;100.00
24858;BME280;12935;50.782;6.074;2023-04-28T02:43:30;99035.88;;;11.38;100.00
24858;BME280;12935;50.782;6.074;2023-04-28T02:45:55;99033.31;;;11.54;100.00
24858;BME280;12935;50.782;6.074;2023-04-28T02:48:22;99030.88;;;11.63;100.00
24858;BME280;12935;50.782;6.074;2023-04-28T02:50:47;99025.22;;;11.74;100.00
24858;BME280;12935;50.782;6.074;2023-04-28T02:53:12;99027.53;;;11.79;100.00
24858;BME280;12935;50.782;6.074;2023-04-28T02:55:38;99012.56;;;11.87;100.00
24858;BME280;12935;50.782;6.074;2023-04-28T02:58:03;99021.91;;;11.89;100.00
24858;BME280;12935;50.782;6.074;2023-04-28T03:00:29;99001.59;;;11.87;100.00
24858;BME280;12935;50.782;6.074;2023-04-28T03:02:54;99011.28;;;11.95;100.00
24858;BME280;12935;50.782;6.074;2023-04-28T03:05:19;98996.81;;;11.94;100.00
24858;BME280;12935;50.782;6.074;2023-04-28T03:07:45;98978.09;;;11.89;100.00
24858;BME280;12935;50.782;6.074;2023-04-28T03:10:10;98986.16;;;12.00;100.00
24858;BME280;12935;50.782;6.074;2023-04-28T03:12:35;98983.34;;;12.04;100.00
24858;BME280;12935;50.782;6.074;2023-04-28T03:15:01;98989.59;;;12.04;100.00
24858;BME280;12935;50.782;6.074;2023-04-28T03:17:26;98980.72;;;11.97;100.00
24858;BME280;12935;50.782;6.074;2023-04-28T03:19:51;98980.03;;;11.92;100.00
24858;BME280;12935;50.782;6.074;2023-04-28T03:22:17;98975.72;;;11.91;100.00
24858;BME280;12935;50.782;6.074;2023-04-28T03:24:42;98958.06;;;11.96;100.00
24858;BME280;12935;50.782;6.074;2023-04-28T03:27:07;98951.91;;;11.88;100.00
24858;BME280;12935;50.782;6.074;2023-04-28T03:29:32;98935.91;;;11.87;100.00
24858;BME280;12935;50.782;6.074;2023-04-28T03:31:58;98945.56;;;11.95;100.00
24858;BME280;12935;50.782;6.074;2023-04-28T03:34:23;98942.81;;;11.95;100.00
24858;BME280;12935;50.782;6.074;2023-04-28T03:36:48;98934.53;;;11.99;100.00
24858;BME280;12935;50.782;6.074;2023-04-28T03:39:13;98932.16;;;12.01;100.00
24858;BME280;12935;50.782;6.074;2023-04-28T03:41:39;98907.47;;;12.04;100.00
24858;BME280;12935;50.782;6.074;2023-04-28T03:44:04;98885.97;;;12.03;100.00
24858;BME280;12935;50.782;6.074;2023-04-28T03:46:29;98875.00;;;12.03;100.00
24858;BME280;12935;50.782;6.074;2023-04-28T03:48:55;98882.47;;;12.02;100.00
24858;BME280;12935;50.782;6.074;2023-04-28T03:51:20;98920.09;;;11.71;100.00
24858;BME280;12935;50.782;6.074;2023-04-28T03:53:45;98938.91;;;11.42;100.00
24858;BME280;12935;50.782;6.074;2023-04-28T03:56:11;98925.22;;;11.42;100.00
24858;BME280;12935;50.782;6.074;2023-04-28T03:58:36;98908.50;;;11.64;100.00
24858;BME280;12935;50.782;6.074;2023-04-28T04:01:01;98918.06;;;11.79;100.00
24858;BME280;12935;50.782;6.074;2023-04-28T04:03:27;98929.50;;;11.70;100.00
24858;BME280;12935;50.782;6.074;2023-04-28T04:05:52;98931.66;;;11.55;100.00
24858;BME280;12935;50.782;6.074;2023-04-28T04:08:19;98930.16;;;11.51;100.00
24858;BME280;12935;50.782;6.074;2023-04-28T04:10:44;98945.97;;;11.40;100.00
24858;BME280;12935;50.782;6.074;2023-04-28T04:13:09;98941.59;;;11.46;100.00
24858;BME280;12935;50.782;6.074;2023-04-28T04:15:35;98947.31;;;11.55;100.00
24858;BME280;12935;50.782;6.074;2023-04-28T04:18:00;98948.88;;;11.56;100.00
24858;BME280;12935;50.782;6.074;2023-04-28T04:20:26;98953.75;;;11.68;100.00
24858;BME280;12935;50.782;6.074;2023-04-28T04:22:51;98953.66;;;11.75;100.00
24858;BME280;12935;50.782;6.074;2023-04-28T04:25:16;98947.31;;;11.55;100.00
24858;BME280;12935;50.782;6.074;2023-04-28T04:27:42;98939.22;;;11.48;100.00
24858;BME280;12935;50.782;6.074;2023-04-28T04:30:07;98948.13;;;11.52;100.00
24858;BME280;12935;50.782;6.074;2023-04-28T04:32:33;98945.88;;;11.47;100.00
24858;BME280;12935;50.782;6.074;2023-04-28T04:34:58;98947.09;;;11.69;100.00
24858;BME280;12935;50.782;6.074;2023-04-28T04:37:23;98947.81;;;11.77;100.00
24858;BME280;12935;50.782;6.074;2023-04-28T04:39:49;98952.09;;;11.78;100.00
24858;BME280;12935;50.782;6.074;2023-04-28T04:42:14;98954.34;;;11.56;100.00
24858;BME280;12935;50.782;6.074;2023-04-28T04:44:39;98956.97;;;11.63;100.00
24858;BME280;12935;50.782;6.074;2023-04-28T04:47:04;98952.53;;;11.73;100.00
24858;BME280;12935;50.782;6.074;2023-04-28T04:49:30;98945.31;;;11.86;100.00
24858;BME280;12935;50.782;6.074;2023-04-28T04:51:55;98943.16;;;11.97;100.00
24858;BME280;12935;50.782;6.074;2023-04-28T04:54:21;98941.16;;;12.01;100.00
24858;BME280;12935;50.782;6.074;2023-04-28T04:56:46;98925.53;;;11.98;100.00
24858;BME280;12935;50.782;6.074;2023-04-28T04:59:12;98930.31;;;11.94;100.00
24858;BME280;12935;50.782;6.074;2023-04-28T05:01:37;98929.25;;;11.88;100.00
24858;BME280;12935;50.782;6.074;2023-04-28T05:04:02;98947.63;;;11.87;100.00
24858;BME280;12935;50.782;6.074;2023-04-28T05:06:28;98950.06;;;11.82;100.00
24858;BME280;12935;50.782;6.074;2023-04-28T05:08:53;98934.25;;;11.93;100.00
24858;BME280;12935;50.782;6.074;2023-04-28T05:11:20;98927.09;;;11.99;100.00
24858;BME280;12935;50.782;6.074;2023-04-28T05:13:46;98936.44;;;12.02;100.00
24858;BME280;12935;50.782;6.074;2023-04-28T05:16:11;98936.50;;;11.98;100.00
24858;BME280;12935;50.782;6.074;2023-04-28T05:18:36;98929.78;;;12.03;100.00
24858;BME280;12935;50.782;6.074;2023-04-28T05:21:02;98923.47;;;12.06;100.00
24858;BME280;12935;50.782;6.074;2023-04-28T05:23:27;98926.63;;;12.04;100.00
24858;BME280;12935;50.782;6.074;2023-04-28T05:25:52;98924.19;;;12.10;100.00
24858;BME280;12935;50.782;6.074;2023-04-28T05:28:18;98924.09;;;12.13;100.00
24858;BME280;12935;50.782;6.074;2023-04-28T05:30:43;98917.31;;;12.21;100.00
24858;BME280;12935;50.782;6.074;2023-04-28T05:33:09;98920.97;;;12.15;100.00
24858;BME280;12935;50.782;6.074;2023-04-28T05:35:34;98923.34;;;12.13;100.00
24858;BME280;12935;50.782;6.074;2023-04-28T05:38:00;98921.72;;;12.15;100.00
24858;BME280;12935;50.782;6.074;2023-04-28T05:40:25;98926.75;;;12.20;100.00
24858;BME280;12935;50.782;6.074;2023-04-28T05:42:51;98921.00;;;12.35;100.00
24858;BME280;12935;50.782;6.074;2023-04-28T05:45:17;98922.56;;;12.36;100.00
24858;BME280;12935;50.782;6.074;2023-04-28T05:47:42;98927.16;;;12.19;100.00
24858;BME280;12935;50.782;6.074;2023-04-28T05:50:08;98924.00;;;11.97;100.00
24858;BME280;12935;50.782;6.074;2023-04-28T05:52:34;98923.66;;;11.95;100.00
24858;BME280;12935;50.782;6.074;2023-04-28T05:54:59;98935.97;;;12.07;100.00
24858;BME280;12935;50.782;6.074;2023-04-28T05:57:24;98935.19;;;12.06;100.00
24858;BME280;12935;50.782;6.074;2023-04-28T05:59:50;98928.38;;;11.94;100.00
24858;BME280;12935;50.782;6.074;2023-04-28T06:02:15;98935.06;;;12.13;100.00
24858;BME280;12935;50.782;6.074;2023-04-28T06:04:41;98942.19;;;12.30;100.00
24858;BME280;12935;50.782;6.074;2023-04-28T06:07:07;98944.63;;;12.48;100.00
24858;BME280;12935;50.782;6.074;2023-04-28T06:09:32;98937.75;;;12.60;100.00
24858;BME280;12935;50.782;6.074;2023-04-28T06:11:57;98942.69;;;12.69;100.00
24858;BME280;12935;50.782;6.074;2023-04-28T06:14:23;98952.88;;;12.68;100.00
24858;BME280;12935;50.782;6.074;2023-04-28T06:16:49;98947.59;;;12.77;100.00
24858;BME280;12935;50.782;6.074;2023-04-28T06:19:14;98934.81;;;12.90;100.00
24858;BME280;12935;50.782;6.074;2023-04-28T06:21:43;98937.25;;;13.05;100.00
24858;BME280;12935;50.782;6.074;2023-04-28T06:24:08;98936.75;;;13.10;100.00
24858;BME280;12935;50.782;6.074;2023-04-28T06:26:34;98945.66;;;13.17;100.00
24858;BME280;12935;50.782;6.074;2023-04-28T06:28:59;98943.31;;;13.16;100.00
24858;BME280;12935;50.782;6.074;2023-04-28T06:31:24;98947.59;;;13.17;100.00
24858;BME280;12935;50.782;6.074;2023-04-28T06:33:50;98947.53;;;13.20;100.00
24858;BME280;12935;50.782;6.074;2023-04-28T06:36:15;98949.69;;;13.29;100.00
24858;BME280;12935;50.782;6.074;2023-04-28T06:38:42;98951.38;;;13.23;100.00
24858;BME280;12935;50.782;6.074;2023-04-28T06:41:08;98938.28;;;13.30;100.00
24858;BME280;12935;50.782;6.074;2023-04-28T06:43:33;98932.84;;;13.47;100.00
24858;BME280;12935;50.782;6.074;2023-04-28T06:45:58;98943.97;;;13.40;100.00
24858;BME280;12935;50.782;6.074;2023-04-28T06:48:25;98958.41;;;13.24;100.00
24858;BME280;12935;50.782;6.074;2023-04-28T06:50:50;98954.22;;;13.19;100.00
24858;BME280;12935;50.782;6.074;2023-04-28T06:53:15;98944.69;;;13.24;100.00
24858;BME280;12935;50.782;6.074;2023-04-28T06:55:41;98955.34;;;13.22;100.00
24858;BME280;12935;50.782;6.074;2023-04-28T06:58:06;98956.19;;;13.19;100.00
24858;BME280;12935;50.782;6.074;2023-04-28T07:00:32;98954.34;;;13.32;100.00
24858;BME280;12935;50.782;6.074;2023-04-28T07:02:58;98950.22;;;13.40;100.00
24858;BME280;12935;50.782;6.074;2023-04-28T07:05:23;98956.00;;;13.46;100.00
24858;BME280;12935;50.782;6.074;2023-04-28T07:07:48;98959.88;;;13.48;100.00
24858;BME280;12935;50.782;6.074;2023-04-28T07:10:14;98954.13;;;13.59;100.00
24858;BME280;12935;50.782;6.074;2023-04-28T07:12:40;98954.47;;;13.61;100.00
24858;BME280;12935;50.782;6.074;2023-04-28T07:15:06;98950.63;;;13.75;100.00
24858;BME280;12935;50.782;6.074;2023-04-28T07:17:31;98948.91;;;13.81;100.00
24858;BME280;12935;50.782;6.074;2023-04-28T07:19:57;98951.13;;;13.86;100.00
24858;BME280;12935;50.782;6.074;2023-04-28T07:22:22;98945.47;;;13.93;100.00
24858;BME280;12935;50.782;6.074;2023-04-28T07:24:48;98952.59;;;13.90;100.00
24858;BME280;12935;50.782;6.074;2023-04-28T07:27:13;98964.44;;;14.03;100.00
24858;BME280;12935;50.782;6.074;2023-04-28T07:29:39;98947.31;;;13.99;100.00
24858;BME280;12935;50.782;6.074;2023-04-28T07:32:04;98953.47;;;14.03;100.00
24858;BME280;12935;50.782;6.074;2023-04-28T07:34:32;98933.09;;;14.01;100.00
24858;BME280;12935;50.782;6.074;2023-04-28T07:36:57;98958.53;;;14.05;100.00
24858;BME280;12935;50.782;6.074;2023-04-28T07:39:23;98957.81;;;14.01;100.00
24858;BME280;12935;50.782;6.074;2023-04-28T07:41:49;98960.34;;;14.12;100.00
24858;BME280;12935;50.782;6.074;2023-04-28T07:44:14;98945.75;;;14.15;100.00
24858;BME280;12935;50.782;6.074;2023-04-28T07:46:39;98945.47;;;14.25;100.00
24858;BME280;12935;50.782;6.074;2023-04-28T07:49:05;98952.41;;;14.46;100.00
24858;BME280;12935;50.782;6.074;2023-04-28T07:51:30;98950.44;;;14.30;100.00
24858;BME280;12935;50.782;6.074;2023-04-28T07:53:56;98952.94;;;14.25;100.00
24858;BME280;12935;50.782;6.074;2023-04-28T07:56:21;98950.97;;;14.25;100.00
24858;BME280;12935;50.782;6.074;2023-04-28T07:58:47;98954.13;;;14.40;100.00
24858;BME280;12935;50.782;6.074;2023-04-28T08:01:12;98952.31;;;14.33;100.00
24858;BME280;12935;50.782;6.074;2023-04-28T08:03:38;98954.81;;;14.28;100.00
24858;BME280;12935;50.782;6.074;2023-04-28T08:06:03;98952.06;;;14.28;100.00
24858;BME280;12935;50.782;6.074;2023-04-28T08:08:29;98962.53;;;14.17;100.00
24858;BME280;12935;50.782;6.074;2023-04-28T08:10:55;98962.72;;;14.10;100.00
24858;BME280;12935;50.782;6.074;2023-04-28T08:13:21;98967.31;;;14.00;100.00
24858;BME280;12935;50.782;6.074;2023-04-28T08:15:47;98970.28;;;13.89;100.00
24858;BME280;12935;50.782;6.074;2023-04-28T08:18:13;98967.03;;;13.94;100.00
24858;BME280;12935;50.782;6.074;2023-04-28T08:20:38;98956.38;;;13.96;100.00
24858;BME280;12935;50.782;6.074;2023-04-28T08:23:04;98967.81;;;14.11;100.00
24858;BME280;12935;50.782;6.074;2023-04-28T08:25:29;98968.66;;;14.08;100.00
24858;BME280;12935;50.782;6.074;2023-04-28T08:27:56;98975.63;;;14.13;100.00
24858;BME280;12935;50.782;6.074;2023-04-28T08:30:21;98971.66;;;14.14;100.00
24858;BME280;12935;50.782;6.074;2023-04-28T08:32:46;98984.44;;;14.20;100.00
24858;BME280;12935;50.782;6.074;2023-04-28T08:35:11;98972.16;;;14.25;100.00
24858;BME280;12935;50.782;6.074;2023-04-28T08:37:37;98980.56;;;14.18;100.00
24858;BME280;12935;50.782;6.074;2023-04-28T08:40:03;98982.91;;;14.19;100.00
24858;BME280;12935;50.782;6.074;2023-04-28T08:42:34;98986.78;;;14.05;100.00
24858;BME280;12935;50.782;6.074;2023-04-28T08:45:02;98984.22;;;13.98;100.00
24858;BME280;12935;50.782;6.074;2023-04-28T08:47:35;98983.59;;;13.91;100.00
24858;BME280;12935;50.782;6.074;2023-04-28T08:50:08;98976.72;;;13.83;100.00
24858;BME280;12935;50.782;6.074;2023-04-28T08:52:34;98979.38;;;13.86;100.00
24858;BME280;12935;50.782;6.074;2023-04-28T08:55:05;98979.06;;;13.84;100.00
24858;BME280;12935;50.782;6.074;2023-04-28T08:57:38;98977.50;;;13.83;100.00
24858;BME280;12935;50.782;6.074;2023-04-28T09:00:05;98980.25;;;13.83;100.00
24858;BME280;12935;50.782;6.074;2023-04-28T09:02:30;98992.59;;;13.91;100.00
24858;BME280;12935;50.782;6.074;2023-04-28T09:04:56;98986.94;;;13.98;100.00
24858;BME280;12935;50.782;6.074;2023-04-28T09:07:21;98987.63;;;14.02;100.00
24858;BME280;12935;50.782;6.074;2023-04-28T09:09:47;98983.59;;;14.07;100.00
24858;BME280;12935;50.782;6.074;2023-04-28T09:12:12;98987.09;;;14.24;100.00
24858;BME280;12935;50.782;6.074;2023-04-28T09:14:38;98979.13;;;14.29;100.00
24858;BME280;12935;50.782;6.074;2023-04-28T09:17:11;98972.22;;;14.54;100.00
24858;BME280;12935;50.782;6.074;2023-04-28T09:19:40;98979.19;;;14.58;100.00
24858;BME280;12935;50.782;6.074;2023-04-28T09:22:08;98973.69;;;14.58;100.00
24858;BME280;12935;50.782;6.074;2023-04-28T09:24:36;98977.22;;;14.59;100.00
24858;BME280;12935;50.782;6.074;2023-04-28T09:27:05;98981.84;;;14.62;100.00
24858;BME280;12935;50.782;6.074;2023-04-28T09:29:32;98973.81;;;14.67;100.00
24858;BME280;12935;50.782;6.074;2023-04-28T09:32:15;98973.34;;;14.56;100.00
24858;BME280;12935;50.782;6.074;2023-04-28T09:34:48;98985.59;;;14.68;100.00
24858;BME280;12935;50.782;6.074;2023-04-28T09:37:19;98988.00;;;14.66;100.00
24858;BME280;12935;50.782;6.074;2023-04-28T09:39:46;98987.50;;;14.71;100.00
24858;BME280;12935;50.782;6.074;2023-04-28T09:42:33;98987.06;;;14.72;100.00
24858;BME280;12935;50.782;6.074;2023-04-28T09:45:00;98981.69;;;14.82;100.00
24858;BME280;12935;50.782;6.074;2023-04-28T09:47:27;98982.63;;;14.91;100.00
24858;BME280;12935;50.782;6.074;2023-04-28T09:49:57;98974.66;;;15.22;100.00
24858;BME280;12935;50.782;6.074;2023-04-28T09:52:24;98979.06;;;15.32;100.00
24858;BME280;12935;50.782;6.074;2023-04-28T09:54:50;98980.44;;;15.40;100.00
24858;BME280;12935;50.782;6.074;2023-04-28T09:57:17;98976.28;;;15.61;100.00
24858;BME280;12935;50.782;6.074;2023-04-28T09:59:50;98971.97;;;15.86;100.00
24858;BME280;12935;50.782;6.074;2023-04-28T10:02:17;98964.47;;;16.46;100.00
24858;BME280;12935;50.782;6.074;2023-04-28T10:04:44;98968.97;;;17.09;100.00
24858;BME280;12935;50.782;6.074;2023-04-28T10:07:14;98963.28;;;17.65;100.00
24858;BME280;12935;50.782;6.074;2023-04-28T10:09:41;98967.28;;;18.13;100.00
24858;BME280;12935;50.782;6.074;2023-04-28T10:12:13;98964.41;;;18.44;100.00
24858;BME280;12935;50.782;6.074;2023-04-28T10:14:40;98972.09;;;18.31;100.00
24858;BME280;12935;50.782;6.074;2023-04-28T10:17:05;98972.44;;;17.84;100.00
24858;BME280;12935;50.782;6.074;2023-04-28T10:19:31;98967.22;;;17.95;100.00
24858;BME280;12935;50.782;6.074;2023-04-28T10:22:11;98972.28;;;17.87;100.00
24858;BME280;12935;50.782;6.074;2023-04-28T10:27:29;98961.50;;;18.39;100.00
24858;BME280;12935;50.782;6.074;2023-04-28T10:30:15;98960.78;;;18.84;100.00
24858;BME280;12935;50.782;6.074;2023-04-28T10:32:42;98962.56;;;19.05;100.00
24858;BME280;12935;50.782;6.074;2023-04-28T10:38:16;98967.06;;;18.93;100.00
24858;BME280;12935;50.782;6.074;2023-04-28T10:40:43;98958.38;;;19.28;100.00
24858;BME280;12935;50.782;6.074;2023-04-28T10:43:10;98943.63;;;19.22;100.00
24858;BME280;12935;50.782;6.074;2023-04-28T10:48:16;98944.69;;;20.00;100.00
24858;BME280;12935;50.782;6.074;2023-04-28T10:56:09;98945.31;;;20.51;100.00
24858;BME280;12935;50.782;6.074;2023-04-28T10:58:34;98946.91;;;19.95;100.00
24858;BME280;12935;50.782;6.074;2023-04-28T11:03:58;98938.03;;;19.40;100.00
24858;BME280;12935;50.782;6.074;2023-04-28T11:06:30;98930.91;;;19.57;100.00
24858;BME280;12935;50.782;6.074;2023-04-28T11:09:45;98937.81;;;19.62;100.00
24858;BME280;12935;50.782;6.074;2023-04-28T11:19:18;98933.22;;;20.40;100.00
24858;BME280;12935;50.782;6.074;2023-04-28T11:21:45;98923.09;;;21.05;100.00
24858;BME280;12935;50.782;6.074;2023-04-28T11:24:12;98930.44;;;20.78;100.00
24858;BME280;12935;50.782;6.074;2023-04-28T11:26:37;98927.38;;;20.76;100.00
24858;BME280;12935;50.782;6.074;2023-04-28T11:29:03;98929.41;;;20.90;100.00
24858;BME280;12935;50.782;6.074;2023-04-28T11:31:30;98917.28;;;20.64;100.00
24858;BME280;12935;50.782;6.074;2023-04-28T11:34:19;98925.03;;;20.45;100.00
24858;BME280;12935;50.782;6.074;2023-04-28T11:36:46;98923.47;;;21.27;100.00
24858;BME280;12935;50.782;6.074;2023-04-28T11:39:12;98918.97;;;21.79;100.00
24858;BME280;12935;50.782;6.074;2023-04-28T11:41:40;98905.50;;;21.92;94.70
24858;BME280;12935;50.782;6.074;2023-04-28T11:44:17;98917.25;;;22.83;90.84
24858;BME280;12935;50.782;6.074;2023-04-28T11:46:49;98920.22;;;22.54;89.22
24858;BME280;12935;50.782;6.074;2023-04-28T11:49:16;98923.34;;;22.82;90.15
24858;BME280;12935;50.782;6.074;2023-04-28T11:51:41;98915.47;;;22.60;89.85
24858;BME280;12935;50.782;6.074;2023-04-28T11:54:09;98923.81;;;21.64;97.32
24858;BME280;12935;50.782;6.074;2023-04-28T11:56:40;98927.19;;;22.03;96.57
24858;BME280;12935;50.782;6.074;2023-04-28T11:59:12;98925.38;;;22.20;90.04
24858;BME280;12935;50.782;6.074;2023-04-28T12:01:47;98927.78;;;22.53;86.79
24858;BME280;12935;50.782;6.074;2023-04-28T12:04:25;98918.78;;;22.84;89.34
24858;BME280;12935;50.782;6.074;2023-04-28T12:07:05;98920.94;;;22.95;85.72
24858;BME280;12935;50.782;6.074;2023-04-28T12:09:32;98920.56;;;22.41;86.63
24858;BME280;12935;50.782;6.074;2023-04-28T12:12:03;98915.38;;;22.95;84.19
24858;BME280;12935;50.782;6.074;2023-04-28T12:14:29;98917.19;;;22.31;83.70
24858;BME280;12935;50.782;6.074;2023-04-28T12:16:57;98922.78;;;22.57;82.38
24858;BME280;12935;50.782;6.074;2023-04-28T12:19:22;98906.53;;;23.28;77.89
24858;BME280;12935;50.782;6.074;2023-04-28T12:21:59;98914.78;;;23.17;76.31
24858;BME280;12935;50.782;6.074;2023-04-28T12:24:25;98902.31;;;22.60;78.00
24858;BME280;12935;50.782;6.074;2023-04-28T12:26:51;98906.91;;;22.63;77.96
24858;BME280;12935;50.782;6.074;2023-04-28T12:32:01;98897.66;;;21.91;82.13
24858;BME280;12935;50.782;6.074;2023-04-28T12:34:26;98910.94;;;22.62;79.50
24858;BME280;12935;50.782;6.074;2023-04-28T12:36:53;98903.88;;;22.41;79.35
24858;BME280;12935;50.782;6.074;2023-04-28T12:39:19;98893.22;;;22.86;78.21
24858;BME280;12935;50.782;6.074;2023-04-28T12:41:44;98896.97;;;22.57;78.39
24858;BME280;12935;50.782;6.074;2023-04-28T12:44:10;98901.28;;;22.37;80.27
24858;BME280;12935;50.782;6.074;2023-04-28T12:46:35;98896.78;;;22.86;76.45
24858;BME280;12935;50.782;6.074;2023-04-28T12:49:01;98895.97;;;22.60;76.11
24858;BME280;12935;50.782;6.074;2023-04-28T12:51:26;98899.28;;;22.84;72.56
24858;BME280;12935;50.782;6.074;2023-04-28T12:53:53;98901.94;;;22.99;70.33
24858;BME280;12935;50.782;6.074;2023-04-28T12:56:19;98912.44;;;22.37;76.67
24858;BME280;12935;50.782;6.074;2023-04-28T12:58:44;98897.59;;;21.50;83.14
24858;BME280;12935;50.782;6.074;2023-04-28T13:01:09;98895.69;;;21.12;88.59
24858;BME280;12935;50.782;6.074;2023-04-28T13:03:34;98913.72;;;23.71;73.39
24858;BME280;12935;50.782;6.074;2023-04-28T13:06:00;98905.94;;;26.82;57.26
24858;BME280;12935;50.782;6.074;2023-04-28T13:08:25;98911.44;;;27.89;50.57
24858;BME280;12935;50.782;6.074;2023-04-28T13:10:50;98904.94;;;27.21;52.69
24858;BME280;12935;50.782;6.074;2023-04-28T13:13:16;98908.91;;;28.34;48.90